createdAt,value
2022-11-24T16:01:51.147Z,2.30
2022-11-24T16:04:19.236Z,2.40
2022-11-24T16:06:46.988Z,2.70
2022-11-24T16:09:16.836Z,3.10
2022-11-24T16:11:44.864Z,3.20
2022-11-24T16:14:12.720Z,2.45
2022-11-24T16:16:41.528Z,2.70
2022-11-24T16:19:10.234Z,2.78
2022-11-24T16:21:38.024Z,2.60
2022-11-24T16:24:06.016Z,2.28
2022-11-24T16:26:34.819Z,2.22
2022-11-24T16:29:02.567Z,2.47
2022-11-24T16:31:30.421Z,2.10
2022-11-24T16:33:58.387Z,2.20
2022-11-24T16:36:26.315Z,1.90
2022-11-24T16:38:54.308Z,2.10
2022-11-24T16:41:22.279Z,2.00
2022-11-24T16:43:50.099Z,2.38
2022-11-24T16:46:22.529Z,2.10
2022-11-24T16:48:52.052Z,2.00
2022-11-24T16:51:22.470Z,2.00
2022-11-24T16:53:58.569Z,1.73
2022-11-24T16:56:27.395Z,1.83
2022-11-24T16:58:55.296Z,1.80
2022-11-24T17:01:23.346Z,1.80
2022-11-24T17:03:51.105Z,1.60
2022-11-24T17:06:19.266Z,2.20
2022-11-24T17:08:47.822Z,1.92
2022-11-24T17:11:20.733Z,1.58
2022-11-24T17:13:51.845Z,1.95
2022-11-24T17:16:21.989Z,1.90
2022-11-24T17:18:50.197Z,2.30
2022-11-24T17:21:22.901Z,1.73
2022-11-24T17:23:55.586Z,1.95
2022-11-24T17:26:23.710Z,1.92
2022-11-24T17:28:51.844Z,2.33
2022-11-24T17:31:24.603Z,1.67
2022-11-24T17:33:57.174Z,1.85
2022-11-24T17:36:25.278Z,2.00
2022-11-24T17:38:53.165Z,2.10
2022-11-24T17:41:21.640Z,2.10
2022-11-24T17:43:55.728Z,2.22
2022-11-24T17:46:24.658Z,2.10
2022-11-24T17:48:53.003Z,2.05
2022-11-24T17:51:22.658Z,2.53
2022-11-24T17:53:52.303Z,1.77
2022-11-24T17:56:23.823Z,2.10
2022-11-24T17:58:56.249Z,2.17
2022-11-24T18:01:24.640Z,2.53
2022-11-24T18:03:53.881Z,2.50
2022-11-24T18:06:25.393Z,2.53
2022-11-24T18:08:54.325Z,2.45
2022-11-24T18:11:30.642Z,2.20
2022-11-24T18:14:02.442Z,2.38
2022-11-24T18:16:32.639Z,2.77
2022-11-24T18:19:10.426Z,2.50
2022-11-24T18:21:43.878Z,2.30
2022-11-24T18:24:12.640Z,2.60
2022-11-24T18:26:41.940Z,2.67
2022-11-24T18:29:10.747Z,2.50
2022-11-24T18:31:39.013Z,2.20
2022-11-24T18:34:10.136Z,2.50
2022-11-24T18:36:37.973Z,2.63
2022-11-24T18:39:07.349Z,2.60
2022-11-24T18:41:35.266Z,2.60
2022-11-24T18:44:03.535Z,2.50
2022-11-24T18:46:31.345Z,2.58
2022-11-24T18:48:59.606Z,2.75
2022-11-24T18:51:27.417Z,2.30
2022-11-24T18:53:55.585Z,2.53
2022-11-24T18:56:23.249Z,2.40
2022-11-24T18:58:54.785Z,2.28
2022-11-24T19:01:27.792Z,2.30
2022-11-24T19:03:57.825Z,2.58
2022-11-24T19:06:32.355Z,2.55
2022-11-24T19:09:03.342Z,2.42
2022-11-24T19:11:34.055Z,2.50
2022-11-24T19:14:07.066Z,2.45
2022-11-24T19:16:35.523Z,2.50
2022-11-24T19:19:03.922Z,2.53
2022-11-24T19:21:33.701Z,2.28
2022-11-24T19:24:05.246Z,2.75
2022-11-24T19:26:37.627Z,2.60
2022-11-24T19:29:07.109Z,2.22
2022-11-24T19:31:35.470Z,2.17
2022-11-24T19:34:03.713Z,2.00
2022-11-24T19:36:31.562Z,2.13
2022-11-24T19:38:59.769Z,1.98
2022-11-24T19:41:29.406Z,2.00
2022-11-24T19:43:58.612Z,2.10
2022-11-24T19:46:29.395Z,2.45
2022-11-24T19:49:00.817Z,2.30
